createdAt,value
2022-11-05T00:00:47.011Z,166.32
2022-11-05T00:03:43.523Z,149.93
2022-11-05T00:06:37.027Z,168.77
2022-11-05T00:09:55.605Z,146.52
2022-11-05T00:12:58.285Z,134.35
2022-11-05T00:16:08.152Z,128.00
2022-11-05T00:19:06.508Z,104.40
2022-11-05T00:22:02.530Z,101.90
2022-11-05T00:24:55.923Z,88.13
2022-11-05T00:27:36.513Z,85.27
2022-11-05T00:30:23.031Z,68.47
2022-11-05T00:33:19.445Z,62.67
2022-11-05T00:35:59.592Z,51.03
2022-11-05T00:38:52.055Z,49.38
2022-11-05T00:41:46.450Z,47.28
2022-11-05T00:44:45.017Z,44.33
2022-11-05T00:47:45.824Z,42.33
2022-11-05T00:50:33.150Z,34.90
2022-11-05T00:53:22.207Z,37.58
2022-11-05T00:56:04.501Z,33.53
2022-11-05T00:58:42.280Z,32.45
2022-11-05T01:01:31.285Z,29.55
2022-11-05T01:04:14.307Z,25.67
2022-11-05T01:07:03.323Z,24.45
2022-11-05T01:09:50.210Z,25.20
2022-11-05T01:12:49.643Z,31.98
2022-11-05T01:15:32.206Z,33.47
2022-11-05T01:18:19.138Z,33.78
2022-11-05T01:21:05.746Z,30.95
2022-11-05T01:23:58.156Z,30.48
2022-11-05T01:26:39.273Z,32.65
2022-11-05T01:29:25.457Z,27.95
2022-11-05T01:32:12.442Z,24.92
2022-11-05T01:34:57.364Z,27.17
2022-11-05T01:37:46.227Z,25.98
2022-11-05T01:40:36.354Z,28.80
2022-11-05T01:43:29.064Z,38.45
2022-11-05T01:46:20.028Z,30.42
2022-11-05T01:49:05.584Z,31.67
2022-11-05T01:51:48.992Z,35.17
2022-11-05T01:54:32.881Z,38.67
2022-11-05T01:57:14.975Z,39.67
2022-11-05T02:00:03.332Z,45.00
2022-11-05T02:02:54.566Z,54.40
2022-11-05T02:05:45.016Z,51.17
2022-11-05T02:08:33.767Z,51.60
2022-11-05T02:11:20.515Z,42.60
2022-11-05T02:14:00.854Z,43.90
2022-11-05T02:17:14.243Z,47.45
2022-11-05T02:20:15.477Z,47.60
2022-11-05T02:23:14.334Z,46.50
2022-11-05T02:26:23.900Z,46.20
2022-11-05T02:29:24.285Z,41.08
2022-11-05T02:32:24.383Z,44.10
2022-11-05T02:35:24.161Z,45.13
2022-11-05T02:38:37.399Z,45.28
2022-11-05T02:41:43.338Z,44.40
2022-11-05T02:44:33.067Z,50.92
2022-11-05T02:47:38.765Z,50.08
2022-11-05T02:51:03.817Z,46.40
2022-11-05T02:53:45.912Z,35.85
2022-11-05T02:56:35.002Z,41.13
2022-11-05T02:59:15.467Z,43.38
2022-11-05T03:01:57.712Z,47.55
2022-11-05T03:04:41.895Z,48.70
2022-11-05T03:07:36.445Z,43.80
2022-11-05T03:10:47.360Z,40.65
2022-11-05T03:13:49.507Z,34.28
2022-11-05T03:16:52.414Z,32.97
2022-11-05T03:19:41.429Z,32.92
2022-11-05T03:22:35.503Z,37.03
2022-11-05T03:25:26.443Z,40.33
2022-11-05T03:28:22.881Z,50.30
2022-11-05T03:30:58.587Z,53.65
2022-11-05T03:33:49.464Z,48.67
2022-11-05T03:36:41.298Z,49.80
2022-11-05T03:39:48.933Z,42.10
2022-11-05T03:42:33.625Z,45.30
2022-11-05T03:45:27.458Z,52.20
2022-11-05T03:48:04.785Z,50.15
2022-11-05T03:50:51.387Z,50.25
2022-11-05T03:53:38.953Z,50.72
2022-11-05T03:56:53.845Z,41.97
2022-11-05T03:59:43.576Z,40.20
2022-11-05T04:02:28.066Z,37.63
2022-11-05T04:05:05.499Z,44.40
2022-11-05T04:08:03.060Z,53.00
2022-11-05T04:11:02.072Z,42.75
2022-11-05T04:13:40.936Z,41.78
2022-11-05T04:16:35.355Z,42.33
2022-11-05T04:19:11.474Z,40.72
2022-11-05T04:22:07.626Z,42.20
2022-11-05T04:24:53.659Z,36.25
2022-11-05T04:27:39.922Z,41.90
2022-11-05T04:30:27.550Z,38.65
2022-11-05T04:33:28.246Z,42.72
2022-11-05T04:36:09.063Z,43.83
2022-11-05T04:38:55.572Z,43.10
2022-11-05T04:41:38.681Z,48.15
2022-11-05T04:44:27.523Z,51.90
2022-11-05T04:47:10.457Z,52.47
2022-11-05T04:49:54.712Z,48.95
2022-11-05T04:52:49.269Z,45.10
2022-11-05T04:55:38.880Z,44.95
2022-11-05T04:58:22.826Z,45.20
2022-11-05T05:01:05.839Z,41.20
2022-11-05T05:03:48.323Z,44.78
2022-11-05T05:06:29.627Z,49.78
2022-11-05T05:09:18.410Z,49.85
2022-11-05T05:12:01.411Z,46.88
2022-11-05T05:14:45.429Z,53.00
2022-11-05T05:17:26.449Z,57.00
2022-11-05T05:20:19.948Z,54.80
2022-11-05T05:23:01.366Z,46.83
2022-11-05T05:25:46.937Z,43.65
2022-11-05T05:28:29.801Z,50.03
2022-11-05T05:31:21.377Z,50.78
2022-11-05T05:34:09.005Z,46.78
2022-11-05T05:36:51.929Z,52.13
2022-11-05T05:39:39.461Z,56.20
2022-11-05T05:42:19.626Z,62.25
2022-11-05T05:45:08.083Z,58.85
2022-11-05T05:47:48.090Z,61.70
2022-11-05T05:50:36.852Z,60.28
2022-11-05T05:53:23.458Z,57.95
2022-11-05T05:56:07.394Z,54.75
2022-11-05T05:58:45.626Z,58.30
2022-11-05T06:01:29.436Z,53.22
2022-11-05T06:04:12.429Z,46.30
2022-11-05T06:06:59.221Z,48.33
2022-11-05T06:09:48.217Z,56.33
2022-11-05T06:12:42.880Z,56.60
2022-11-05T06:15:20.450Z,47.60
2022-11-05T06:18:10.141Z,50.15
2022-11-05T06:20:56.096Z,53.38
2022-11-05T06:23:43.460Z,50.28
2022-11-05T06:26:32.052Z,52.67
2022-11-05T06:29:18.878Z,44.20
2022-11-05T06:32:02.814Z,49.40
2022-11-05T06:34:49.483Z,46.38
2022-11-05T06:40:20.500Z,43.50
2022-11-05T06:43:00.867Z,39.25
2022-11-05T06:45:44.992Z,39.92
2022-11-05T06:48:32.183Z,40.95
2022-11-05T06:51:16.717Z,42.42
2022-11-05T06:53:55.350Z,40.95
2022-11-05T06:56:41.343Z,46.17
2022-11-05T06:59:27.340Z,42.88
2022-11-05T07:02:13.557Z,45.20
2022-11-05T07:04:59.621Z,46.50
2022-11-05T07:07:40.004Z,45.60
2022-11-05T07:10:22.425Z,39.67
2022-11-05T07:13:11.093Z,39.90
2022-11-05T07:16:03.500Z,40.38
2022-11-05T07:18:53.468Z,36.55
2022-11-05T07:21:55.513Z,38.25
2022-11-05T07:24:39.661Z,36.97
2022-11-05T07:27:34.075Z,38.47
2022-11-05T07:30:36.072Z,45.60
2022-11-05T07:33:25.325Z,51.70
2022-11-05T07:36:15.421Z,49.00
2022-11-05T07:39:05.186Z,50.42
2022-11-05T07:41:59.558Z,47.58
2022-11-05T07:45:05.719Z,50.65
2022-11-05T07:48:11.426Z,45.80
2022-11-05T07:50:51.844Z,40.88
2022-11-05T07:53:32.608Z,37.75
2022-11-05T07:56:37.110Z,37.58
2022-11-05T07:59:20.472Z,29.73
2022-11-05T08:02:10.131Z,24.42
2022-11-05T08:04:58.391Z,22.13
2022-11-05T08:07:44.489Z,22.35
2022-11-05T08:10:26.265Z,23.08
2022-11-05T08:13:24.370Z,22.67
2022-11-05T08:16:11.448Z,21.10
2022-11-05T08:19:02.054Z,23.85
2022-11-05T08:21:54.731Z,23.10
2022-11-05T08:24:44.021Z,22.83
2022-11-05T08:27:32.598Z,25.90
2022-11-05T08:30:22.909Z,22.02
2022-11-05T08:33:09.754Z,20.00
2022-11-05T08:35:55.708Z,19.73
2022-11-05T08:38:41.475Z,18.38
2022-11-05T08:41:25.755Z,18.27
2022-11-05T08:44:14.646Z,18.52
2022-11-05T08:47:07.064Z,21.52
2022-11-05T08:49:57.364Z,16.98
2022-11-05T08:52:47.901Z,13.48
2022-11-05T08:55:41.103Z,14.95
2022-11-05T08:58:32.891Z,14.95
2022-11-05T09:01:19.335Z,12.75
2022-11-05T09:04:11.832Z,16.10
2022-11-05T09:06:57.192Z,16.25
2022-11-05T09:09:37.066Z,17.05
2022-11-05T09:12:21.133Z,14.20
2022-11-05T09:15:07.115Z,19.50
2022-11-05T09:17:56.829Z,11.55
2022-11-05T09:20:45.025Z,13.50
2022-11-05T09:23:43.894Z,10.93
2022-11-05T09:26:30.169Z,11.52
2022-11-05T09:29:22.075Z,12.07
2022-11-05T09:32:02.771Z,10.32
2022-11-05T09:34:53.686Z,11.70
2022-11-05T09:37:38.429Z,10.30
2022-11-05T09:40:34.680Z,11.75
2022-11-05T09:43:35.402Z,12.05
2022-11-05T09:46:21.620Z,15.32
2022-11-05T09:49:04.361Z,11.63
2022-11-05T09:51:52.909Z,15.15
2022-11-05T09:54:39.110Z,10.20
2022-11-05T09:57:31.435Z,12.15
2022-11-05T10:00:23.652Z,10.50
2022-11-05T10:03:30.672Z,11.20
2022-11-05T10:06:23.165Z,8.10
2022-11-05T10:09:17.682Z,8.07
2022-11-05T10:12:16.811Z,7.53
2022-11-05T10:15:34.000Z,7.75
2022-11-05T10:18:29.363Z,6.60
2022-11-05T10:21:13.389Z,9.82
2022-11-05T10:26:41.774Z,11.13
2022-11-05T10:29:32.508Z,6.72
2022-11-05T10:32:24.572Z,9.57
2022-11-05T10:35:13.940Z,7.35
2022-11-05T10:38:15.643Z,7.38
2022-11-05T10:41:58.859Z,6.25
2022-11-05T10:44:48.994Z,7.82
2022-11-05T10:47:58.217Z,9.48
2022-11-05T10:50:41.638Z,7.30
2022-11-05T10:53:41.123Z,8.55
2022-11-05T10:56:49.445Z,7.38
2022-11-05T10:59:33.673Z,7.70
2022-11-05T11:02:30.326Z,6.95
2022-11-05T11:05:18.865Z,7.55
2022-11-05T11:08:09.900Z,9.05
2022-11-05T11:10:57.296Z,6.53
2022-11-05T11:13:52.580Z,7.13
2022-11-05T11:16:50.883Z,7.00
2022-11-05T11:19:43.808Z,5.93
2022-11-05T11:22:34.455Z,6.13
2022-11-05T11:25:52.801Z,6.82
2022-11-05T11:28:46.995Z,6.47
2022-11-05T11:31:30.502Z,5.68
2022-11-05T11:34:34.456Z,5.88
2022-11-05T11:37:19.429Z,7.65
2022-11-05T11:40:10.016Z,7.00
2022-11-05T11:42:58.785Z,6.10
2022-11-05T11:45:52.435Z,5.20
2022-11-05T11:48:49.069Z,4.75
2022-11-05T11:51:50.098Z,6.10
2022-11-05T11:54:36.708Z,6.38
2022-11-05T11:57:32.161Z,5.53
2022-11-05T12:00:30.254Z,4.57
2022-11-05T12:03:22.677Z,5.05
2022-11-05T12:06:28.509Z,3.53
2022-11-05T12:09:16.446Z,3.88
2022-11-05T12:12:36.458Z,10.40
2022-11-05T12:15:47.854Z,5.05
2022-11-05T12:18:39.489Z,3.60
2022-11-05T12:21:57.288Z,7.05
2022-11-05T12:25:13.082Z,3.88
2022-11-05T12:28:12.779Z,5.70
2022-11-05T12:31:13.456Z,5.57
2022-11-05T12:34:24.636Z,5.45
2022-11-05T12:37:46.443Z,5.88
2022-11-05T12:41:01.827Z,5.65
2022-11-05T12:43:59.749Z,6.93
2022-11-05T12:47:07.921Z,5.38
2022-11-05T12:50:21.135Z,6.78
2022-11-05T12:53:26.575Z,5.18
2022-11-05T12:56:19.126Z,5.57
2022-11-05T12:59:06.465Z,8.82
2022-11-05T13:01:55.253Z,4.72
2022-11-05T13:04:46.871Z,6.72
2022-11-05T13:07:40.287Z,24.70
2022-11-05T13:10:44.409Z,82.88
2022-11-05T13:13:43.740Z,7.50
2022-11-05T13:16:51.340Z,9.65
2022-11-05T13:19:51.540Z,4.95
2022-11-05T13:22:47.786Z,4.00
2022-11-05T13:25:28.638Z,4.25
2022-11-05T13:28:39.885Z,5.22
2022-11-05T13:31:20.602Z,4.60
2022-11-05T13:34:13.447Z,5.63
2022-11-05T13:37:29.999Z,5.00
2022-11-05T13:40:23.402Z,5.72
2022-11-05T13:43:53.440Z,4.95
2022-11-05T13:46:55.592Z,6.25
2022-11-05T13:49:51.601Z,6.20
2022-11-05T13:53:00.418Z,5.03
2022-11-05T13:56:02.765Z,4.80
2022-11-05T13:59:46.643Z,4.05
2022-11-05T14:12:49.275Z,4.70
2022-11-05T14:15:31.829Z,5.22
2022-11-05T14:18:43.083Z,3.53
2022-11-05T14:21:55.465Z,3.25
2022-11-05T14:24:49.097Z,3.83
2022-11-05T14:27:50.639Z,5.05
2022-11-05T14:30:54.561Z,3.88
2022-11-05T14:33:44.089Z,5.72
2022-11-05T14:36:32.995Z,5.43
2022-11-05T14:39:28.105Z,7.05
2022-11-05T14:42:12.892Z,5.53
2022-11-05T14:47:58.831Z,4.43
2022-11-05T14:50:47.608Z,5.75
2022-11-05T14:53:46.737Z,8.02
2022-11-05T14:56:27.745Z,5.15
2022-11-05T14:59:22.267Z,5.25
2022-11-05T15:02:12.051Z,4.47
2022-11-05T15:04:51.732Z,7.07
2022-11-05T15:07:50.528Z,5.43
2022-11-05T15:10:37.468Z,4.55
2022-11-05T15:13:52.545Z,4.32
2022-11-05T15:16:49.154Z,7.32
2022-11-05T15:19:42.076Z,5.95
2022-11-05T15:22:32.006Z,6.13
2022-11-05T15:25:31.249Z,5.35
2022-11-05T15:28:34.385Z,6.15
2022-11-05T15:31:27.890Z,7.50
2022-11-05T15:34:31.933Z,8.10
2022-11-05T15:37:24.208Z,9.27
2022-11-05T15:40:03.559Z,6.93
2022-11-05T15:42:45.192Z,7.20
2022-11-05T15:45:41.105Z,8.10
2022-11-05T15:48:30.250Z,14.35
2022-11-05T15:51:20.199Z,13.48
2022-11-05T15:54:30.139Z,15.23
2022-11-05T15:57:28.411Z,11.50
2022-11-05T16:00:31.020Z,13.75
2022-11-05T16:03:30.076Z,9.05
2022-11-05T16:06:26.102Z,9.57
2022-11-05T16:09:07.694Z,8.10
2022-11-05T16:12:02.962Z,6.93
2022-11-05T16:15:07.617Z,12.15
2022-11-05T16:17:54.559Z,7.07
2022-11-05T16:20:41.945Z,8.95
2022-11-05T16:23:42.175Z,9.05
2022-11-05T16:30:01.148Z,9.85
2022-11-05T16:32:44.856Z,8.18
2022-11-05T16:35:31.102Z,12.88
2022-11-05T16:38:21.249Z,9.95
2022-11-05T16:41:10.270Z,20.00
2022-11-05T16:43:59.183Z,14.73
2022-11-05T16:46:52.231Z,17.52
2022-11-05T16:49:42.429Z,11.43
2022-11-05T16:52:26.091Z,22.10
2022-11-05T16:55:10.088Z,16.70
2022-11-05T16:57:57.114Z,26.15
2022-11-05T17:00:44.405Z,18.08
2022-11-05T17:03:34.113Z,17.80
2022-11-05T17:06:21.332Z,17.13
2022-11-05T17:09:10.823Z,24.52
2022-11-05T17:12:00.889Z,18.05
2022-11-05T17:14:50.401Z,20.25
2022-11-05T17:17:41.664Z,23.58
2022-11-05T17:20:46.641Z,22.13
2022-11-05T17:23:30.256Z,17.58
2022-11-05T17:29:03.588Z,26.67
2022-11-05T17:31:47.639Z,30.75
2022-11-05T17:34:34.126Z,28.08
2022-11-05T17:37:14.550Z,23.70
2022-11-05T17:40:11.530Z,25.50
2022-11-05T17:42:53.222Z,23.60
2022-11-05T17:45:39.213Z,25.30
2022-11-05T17:48:31.941Z,27.05
2022-11-05T17:51:21.497Z,27.15
2022-11-05T17:54:04.622Z,28.13
2022-11-05T17:56:50.308Z,28.55
2022-11-05T17:59:35.524Z,24.75
2022-11-05T18:02:26.730Z,31.45
2022-11-05T18:05:10.402Z,28.15
2022-11-05T18:08:03.603Z,30.10
2022-11-05T18:10:50.523Z,28.98
2022-11-05T18:13:34.626Z,31.35
2022-11-05T18:16:17.569Z,32.75
2022-11-05T18:18:59.131Z,30.35
2022-11-05T18:21:41.514Z,28.88
2022-11-05T18:24:32.637Z,30.20
2022-11-05T18:27:18.434Z,27.75
2022-11-05T18:30:05.510Z,30.75
2022-11-05T18:32:51.440Z,33.28
2022-11-05T18:35:43.456Z,33.55
2022-11-05T18:38:24.092Z,32.45
2022-11-05T18:41:14.116Z,33.25
2022-11-05T18:43:51.959Z,29.67
2022-11-05T18:46:57.067Z,32.30
2022-11-05T18:49:49.177Z,28.42
2022-11-05T18:52:30.170Z,27.95
2022-11-05T18:55:17.191Z,31.15
2022-11-05T18:57:57.677Z,31.85
2022-11-05T19:00:43.203Z,30.20
2022-11-05T19:03:23.822Z,28.60
2022-11-05T19:06:10.536Z,25.25
2022-11-05T19:08:56.071Z,33.13
2022-11-05T19:11:47.787Z,27.85
2022-11-05T19:14:33.163Z,24.52
2022-11-05T19:17:16.648Z,21.38
2022-11-05T19:19:57.133Z,23.25
2022-11-05T19:22:51.620Z,18.75
2022-11-05T19:25:31.264Z,23.42
2022-11-05T19:28:29.087Z,19.95
2022-11-05T19:31:07.325Z,22.95
2022-11-05T19:33:54.666Z,21.92
2022-11-05T19:36:37.148Z,21.73
2022-11-05T19:39:22.976Z,27.80
2022-11-05T19:42:13.233Z,24.67
2022-11-05T19:45:16.758Z,25.67
2022-11-05T19:48:06.531Z,22.33
2022-11-05T19:50:59.382Z,25.45
2022-11-05T19:53:43.825Z,20.98
2022-11-05T19:56:32.965Z,24.85
2022-11-05T19:59:14.038Z,25.00
2022-11-05T20:01:52.592Z,31.55
2022-11-05T20:04:41.010Z,27.67
2022-11-05T20:07:27.556Z,29.55
2022-11-05T20:10:07.611Z,26.42
2022-11-05T20:12:50.566Z,24.98
2022-11-05T20:15:36.035Z,25.58
2022-11-05T20:18:25.359Z,24.35
2022-11-05T20:21:31.477Z,24.77
2022-11-05T20:24:25.272Z,21.08
2022-11-05T20:27:03.561Z,24.80
2022-11-05T20:29:50.026Z,28.83
2022-11-05T20:32:39.040Z,27.00
2022-11-05T20:35:25.489Z,28.42
2022-11-05T20:38:12.275Z,26.35
2022-11-05T20:41:01.803Z,23.70
2022-11-05T20:43:41.076Z,26.48
2022-11-05T20:46:27.061Z,21.75
2022-11-05T20:49:08.098Z,23.15
2022-11-05T20:52:03.164Z,25.92
2022-11-05T20:54:52.998Z,25.38
2022-11-05T20:57:36.794Z,23.65
2022-11-05T21:00:20.825Z,22.08
2022-11-05T21:05:36.390Z,18.95
2022-11-05T21:08:23.066Z,21.25
2022-11-05T21:11:08.492Z,20.05
2022-11-05T21:13:54.797Z,19.13
2022-11-05T21:16:38.959Z,19.67
2022-11-05T21:19:18.259Z,22.98
2022-11-05T21:22:04.196Z,19.20
2022-11-05T21:24:56.794Z,20.88
2022-11-05T21:27:46.454Z,25.08
2022-11-05T21:30:25.126Z,25.75
2022-11-05T21:33:06.103Z,30.73
2022-11-05T21:38:38.275Z,21.20
2022-11-05T21:41:30.028Z,29.30
2022-11-05T21:44:11.513Z,25.23
2022-11-05T21:46:52.475Z,30.58
2022-11-05T21:52:33.884Z,20.52
2022-11-05T21:55:30.168Z,25.60
2022-11-05T21:58:34.763Z,23.67
2022-11-05T22:04:02.845Z,25.33
2022-11-05T22:06:43.398Z,28.08
2022-11-05T22:09:29.892Z,26.65
2022-11-05T22:12:10.502Z,28.55
2022-11-05T22:14:51.109Z,34.67
2022-11-05T22:17:33.828Z,39.58
2022-11-05T22:20:19.708Z,33.28
2022-11-05T22:23:10.882Z,37.33
2022-11-05T22:26:03.324Z,30.55
2022-11-05T22:28:47.117Z,31.90
2022-11-05T22:31:53.400Z,22.98
2022-11-05T22:34:39.857Z,29.13
2022-11-05T22:37:25.230Z,26.90
2022-11-05T22:40:14.323Z,27.83
2022-11-05T22:42:58.984Z,28.58
2022-11-05T22:45:48.554Z,28.98
2022-11-05T22:48:31.493Z,32.35
2022-11-05T22:51:13.780Z,35.47
2022-11-05T22:54:04.229Z,34.67
2022-11-05T22:56:51.084Z,36.00
2022-11-05T22:59:31.939Z,40.22
2022-11-05T23:04:56.055Z,31.83
2022-11-05T23:07:55.579Z,33.65
2022-11-05T23:10:48.841Z,36.75
2022-11-05T23:13:32.127Z,36.28
2022-11-05T23:16:25.784Z,36.70
2022-11-05T23:19:22.311Z,31.02
2022-11-05T23:22:21.606Z,32.67
2022-11-05T23:25:07.672Z,31.38
2022-11-05T23:27:46.437Z,20.92
2022-11-05T23:30:36.969Z,29.38
2022-11-05T23:33:20.295Z,28.80
2022-11-05T23:36:22.138Z,28.98
2022-11-05T23:39:10.096Z,27.98
2022-11-05T23:42:04.978Z,27.08
2022-11-05T23:45:01.931Z,25.13
2022-11-05T23:48:01.270Z,24.40
2022-11-05T23:50:47.183Z,29.92
2022-11-05T23:53:26.899Z,25.73
2022-11-05T23:56:11.892Z,26.90
2022-11-05T23:58:57.649Z,25.42
